Time,TemperatureF,DewpointF,PressureIn,WindDirection,WindDirectionDegrees,WindSpeedMPH,WindSpeedGustMPH,Humidity,HourlyPrecipIn,Conditions,Clouds,dailyrainin,SoftwareType,DateUTC
2013-10-23 00:00:00,55.2,54.7,29.83,North,0,0.0,0.0,98,0.00,,,0.00,meteohub,2013-10-23 04:00:00,
2013-10-23 00:01:00,55.2,54.7,29.83,North,0,0.0,0.0,98,0.00,,,0.00,meteohub,2013-10-23 04:01:00,
2013-10-23 00:07:00,55.0,54.5,29.83,North,0,0.0,0.0,98,0.00,,,0.00,meteohub,2013-10-23 04:07:00,
2013-10-23 00:12:00,55.0,54.5,29.83,North,0,0.0,0.0,98,0.00,,,0.00,meteohub,2013-10-23 04:12:00,
2013-10-23 00:17:00,55.0,54.5,29.83,North,0,0.0,0.0,98,0.00,,,0.00,meteohub,2013-10-23 04:17:00,
2013-10-23 00:22:00,55.0,54.5,29.83,North,0,0.0,0.0,98,0.00,,,0.00,meteohub,2013-10-23 04:22:00,
2013-10-23 00:27:00,55.2,54.7,29.83,North,0,0.0,0.0,98,0.00,,,0.00,meteohub,2013-10-23 04:27:00,
2013-10-23 00:32:00,55.2,54.7,29.83,North,0,0.0,0.0,98,0.00,,,0.00,meteohub,2013-10-23 04:32:00,
2013-10-23 00:37:00,55.4,54.9,29.83,North,0,0.0,0.0,98,0.00,,,0.00,meteohub,2013-10-23 04:37:00,
2013-10-23 00:42:00,55.4,54.9,29.80,North,0,0.0,0.0,98,0.00,,,0.00,meteohub,2013-10-23 04:42:00,
2013-10-23 00:47:00,55.6,55.0,29.80,North,0,0.0,0.0,98,0.00,,,0.00,meteohub,2013-10-23 04:47:00,
2013-10-23 00:52:00,55.4,54.9,29.80,North,0,0.0,0.0,98,0.00,,,0.00,meteohub,2013-10-23 04:52:00,
2013-10-23 00:57:00,55.2,54.7,29.80,North,0,0.0,0.0,98,0.00,,,0.00,meteohub,2013-10-23 04:57:00,
2013-10-23 01:02:00,55.2,54.7,29.80,North,0,0.0,0.0,98,0.00,,,0.00,meteohub,2013-10-23 05:02:00,
2013-10-23 01:07:00,55.0,54.5,29.80,North,0,0.0,0.0,98,0.00,,,0.00,meteohub,2013-10-23 05:07:00,
2013-10-23 01:12:00,55.0,54.5,29.80,North,0,0.0,0.0,98,0.00,,,0.00,meteohub,2013-10-23 05:12:00,
2013-10-23 01:17:00,55.0,54.5,29.80,North,0,0.0,0.0,98,0.00,,,0.00,meteohub,2013-10-23 05:17:00,
2013-10-23 01:22:00,55.0,54.5,29.80,North,0,0.0,0.0,98,0.00,,,0.00,meteohub,2013-10-23 05:22:00,
2013-10-23 01:27:00,55.2,54.7,29.80,North,0,0.0,0.0,98,0.00,,,0.00,meteohub,2013-10-23 05:27:00,
2013-10-23 01:32:00,55.2,54.7,29.80,North,0,0.0,0.0,98,0.00,,,0.00,meteohub,2013-10-23 05:32:00,
2013-10-23 01:37:00,55.4,54.9,29.80,North,0,0.0,0.0,98,0.00,,,0.00,meteohub,2013-10-23 05:37:00,
2013-10-23 01:42:00,55.6,55.0,29.80,North,0,0.0,0.0,98,0.00,,,0.00,meteohub,2013-10-23 05:42:00,
2013-10-23 01:47:00,55.8,55.2,29.80,North,0,0.0,0.0,98,0.00,,,0.00,meteohub,2013-10-23 05:47:00,
2013-10-23 01:52:00,55.8,55.2,29.80,North,0,0.0,0.0,98,0.00,,,0.00,meteohub,2013-10-23 05:52:00,
2013-10-23 01:57:00,55.8,55.2,29.77,North,0,0.0,0.0,98,0.00,,,0.00,meteohub,2013-10-23 05:57:00,
2013-10-23 02:02:00,55.8,55.2,29.77,North,0,0.0,0.0,98,0.00,,,0.00,meteohub,2013-10-23 06:02:00,
2013-10-23 02:07:00,55.8,55.2,29.77,North,0,0.0,0.0,98,0.00,,,0.00,meteohub,2013-10-23 06:07:00,
2013-10-23 02:12:00,55.6,55.0,29.77,North,0,0.0,0.0,98,0.00,,,0.00,meteohub,2013-10-23 06:12:00,
2013-10-23 02:17:00,55.4,54.9,29.77,North,0,0.0,0.0,98,0.00,,,0.00,meteohub,2013-10-23 06:17:00,
2013-10-23 02:22:00,55.4,54.9,29.77,North,0,0.0,0.0,98,0.00,,,0.00,meteohub,2013-10-23 06:22:00,
2013-10-23 02:27:00,55.2,54.7,29.77,North,0,0.0,0.0,98,0.00,,,0.00,meteohub,2013-10-23 06:27:00,
2013-10-23 02:32:00,55.4,54.9,29.77,North,0,0.0,0.0,98,0.00,,,0.00,meteohub,2013-10-23 06:32:00,
2013-10-23 02:36:00,55.4,54.9,29.77,North,0,0.0,0.0,98,0.00,,,0.00,meteohub,2013-10-23 06:36:00,
2013-10-23 02:42:00,55.6,55.0,29.77,North,0,0.0,0.0,98,0.00,,,0.00,meteohub,2013-10-23 06:42:00,
2013-10-23 02:47:00,55.8,55.2,29.77,North,0,0.0,0.0,98,0.00,,,0.00,meteohub,2013-10-23 06:47:00,
2013-10-23 02:52:00,55.8,55.2,29.77,North,0,0.0,0.0,98,0.00,,,0.00,meteohub,2013-10-23 06:52:00,
2013-10-23 02:57:00,55.9,55.4,29.77,North,0,0.0,0.0,98,0.00,,,0.00,meteohub,2013-10-23 06:57:00,
2013-10-23 03:02:00,55.9,55.4,29.77,North,0,0.0,0.0,98,0.00,,,0.00,meteohub,2013-10-23 07:02:00,
2013-10-23 03:07:00,56.1,55.6,29.77,North,0,0.0,0.0,98,0.00,,,0.00,meteohub,2013-10-23 07:07:00,
2013-10-23 03:12:00,56.1,55.6,29.77,North,0,0.0,0.0,98,0.00,,,0.00,meteohub,2013-10-23 07:12:00,
2013-10-23 03:17:00,56.3,55.8,29.77,West,270,0.0,0.0,98,0.00,,,0.00,meteohub,2013-10-23 07:17:00,
2013-10-23 03:22:00,56.5,55.9,29.77,West,270,0.0,0.0,98,0.00,,,0.00,meteohub,2013-10-23 07:22:00,
2013-10-23 03:27:00,56.7,56.1,29.77,WNW,292,0.0,0.0,98,0.00,,,0.00,meteohub,2013-10-23 07:27:00,
2013-10-23 03:32:00,56.7,56.1,29.77,WNW,292,0.0,0.0,98,0.00,,,0.00,meteohub,2013-10-23 07:32:00,
2013-10-23 03:37:00,56.7,56.1,29.77,WNW,292,0.0,0.0,98,0.00,,,0.00,meteohub,2013-10-23 07:37:00,
2013-10-23 03:42:00,56.8,56.3,29.74,WNW,292,0.0,0.0,98,0.00,,,0.00,meteohub,2013-10-23 07:42:00,
2013-10-23 03:47:00,56.8,56.3,29.74,WNW,292,0.0,0.0,98,0.00,,,0.00,meteohub,2013-10-23 07:47:00,
2013-10-23 03:52:00,56.8,56.3,29.74,WNW,292,0.0,0.0,98,0.00,,,0.00,meteohub,2013-10-23 07:52:00,
2013-10-23 03:57:00,56.8,56.3,29.74,WNW,292,0.0,0.0,98,0.00,,,0.00,meteohub,2013-10-23 07:57:00,
2013-10-23 04:02:00,57.0,56.5,29.74,WNW,292,0.0,0.0,98,0.00,,,0.00,meteohub,2013-10-23 08:02:00,
2013-10-23 04:07:00,57.0,56.5,29.74,WNW,292,0.0,0.0,98,0.00,,,0.00,meteohub,2013-10-23 08:07:00,
2013-10-23 04:12:00,57.0,56.5,29.74,WNW,292,0.0,0.0,98,0.00,,,0.00,meteohub,2013-10-23 08:12:00,
2013-10-23 04:17:00,57.2,56.7,29.74,WNW,292,0.0,0.0,98,0.00,,,0.00,meteohub,2013-10-23 08:17:00,
2013-10-23 04:22:00,57.2,56.7,29.74,WNW,292,0.0,0.0,98,0.00,,,0.00,meteohub,2013-10-23 08:22:00,
2013-10-23 04:27:00,57.2,56.7,29.74,WNW,292,0.0,0.0,98,0.00,,,0.00,meteohub,2013-10-23 08:27:00,
2013-10-23 04:32:00,57.4,56.8,29.74,WNW,292,0.0,0.0,98,0.00,,,0.00,meteohub,2013-10-23 08:32:00,
2013-10-23 04:37:00,57.4,56.8,29.74,WNW,292,0.0,0.0,98,0.00,,,0.00,meteohub,2013-10-23 08:37:00,
2013-10-23 04:42:00,57.6,57.0,29.74,WNW,292,0.0,0.0,98,0.00,,,0.00,meteohub,2013-10-23 08:42:00,
2013-10-23 04:47:00,57.6,57.0,29.74,WNW,292,0.0,0.0,98,0.00,,,0.00,meteohub,2013-10-23 08:47:00,
2013-10-23 04:52:00,57.6,57.0,29.74,WNW,292,0.0,0.0,98,0.00,,,0.00,meteohub,2013-10-23 08:52:00,
2013-10-23 04:57:00,57.6,57.0,29.74,WNW,292,0.0,0.0,98,0.00,,,0.00,meteohub,2013-10-23 08:57:00,
2013-10-23 05:02:00,57.7,57.2,29.74,WNW,292,0.0,0.0,98,0.00,,,0.00,meteohub,2013-10-23 09:02:00,
2013-10-23 05:07:00,57.7,57.2,29.74,WNW,292,0.0,0.0,98,0.00,,,0.00,meteohub,2013-10-23 09:07:00,
2013-10-23 05:12:00,57.9,57.4,29.71,WNW,292,0.0,0.0,98,0.00,,,0.00,meteohub,2013-10-23 09:12:00,
2013-10-23 05:17:00,57.9,57.4,29.71,WNW,292,0.0,0.0,98,0.00,,,0.00,meteohub,2013-10-23 09:17:00,
2013-10-23 05:22:00,57.9,57.4,29.71,WNW,292,0.0,0.0,98,0.00,,,0.00,meteohub,2013-10-23 09:22:00,
2013-10-23 05:27:00,57.9,57.4,29.71,WNW,292,0.0,0.0,98,0.00,,,0.00,meteohub,2013-10-23 09:27:00,
2013-10-23 05:32:00,57.9,57.4,29.71,ESE,112,0.0,0.0,98,0.00,,,0.00,meteohub,2013-10-23 09:32:00,
2013-10-23 05:37:00,57.9,57.4,29.71,ESE,112,0.0,2.0,98,0.00,,,0.00,meteohub,2013-10-23 09:37:00,
2013-10-23 05:42:00,57.9,57.4,29.71,WSW,248,0.0,2.0,98,0.00,,,0.00,meteohub,2013-10-23 09:42:00,
2013-10-23 05:47:00,57.9,57.4,29.71,WSW,248,0.0,2.0,98,0.00,,,0.00,meteohub,2013-10-23 09:47:00,
2013-10-23 05:52:00,57.9,57.4,29.71,WSW,248,0.0,0.0,98,0.00,,,0.00,meteohub,2013-10-23 09:52:00,
2013-10-23 05:57:00,57.9,57.4,29.71,NNE,22,0.0,0.0,98,0.00,,,0.00,meteohub,2013-10-23 09:57:00,
2013-10-23 06:02:00,58.1,57.6,29.71,NNE,22,0.0,0.0,98,0.00,,,0.00,meteohub,2013-10-23 10:02:00,
2013-10-23 06:07:00,58.1,57.6,29.71,West,270,0.0,0.0,98,0.00,,,0.00,meteohub,2013-10-23 10:07:00,
2013-10-23 06:12:00,58.1,57.6,29.71,ENE,68,0.0,4.0,98,0.00,,,0.00,meteohub,2013-10-23 10:12:00,
2013-10-23 06:17:00,58.1,57.6,29.71,East,90,0.0,4.0,98,0.00,,,0.00,meteohub,2013-10-23 10:17:00,
2013-10-23 06:22:00,58.3,57.7,29.71,NNE,22,0.0,3.0,98,0.00,,,0.00,meteohub,2013-10-23 10:22:00,
2013-10-23 06:27:00,58.3,57.7,29.71,West,270,0.0,3.0,98,0.00,,,0.00,meteohub,2013-10-23 10:27:00,
2013-10-23 06:32:00,58.5,57.9,29.71,NW,315,0.0,3.0,98,0.00,,,0.00,meteohub,2013-10-23 10:32:00,
2013-10-23 06:37:00,58.5,57.9,29.71,WNW,292,0.0,3.0,98,0.00,,,0.00,meteohub,2013-10-23 10:37:00,
2013-10-23 06:42:00,58.5,57.9,29.71,WSW,248,0.0,3.0,98,0.00,,,0.00,meteohub,2013-10-23 10:42:00,
2013-10-23 06:47:00,58.5,57.9,29.71,NW,315,0.0,3.0,98,0.00,,,0.00,meteohub,2013-10-23 10:47:00,
2013-10-23 06:52:00,58.6,58.1,29.71,WNW,292,0.0,3.0,98,0.00,,,0.00,meteohub,2013-10-23 10:52:00,
2013-10-23 06:57:00,58.6,58.1,29.71,WNW,292,0.0,3.0,98,0.00,,,0.00,meteohub,2013-10-23 10:57:00,
2013-10-23 07:02:00,58.6,58.1,29.71,WSW,248,3.0,5.0,98,0.00,,,0.00,meteohub,2013-10-23 11:02:00,
2013-10-23 07:07:00,58.8,58.3,29.71,WSW,248,0.0,5.0,98,0.00,,,0.00,meteohub,2013-10-23 11:07:00,
2013-10-23 07:12:00,58.8,58.3,29.68,WNW,292,2.0,5.0,98,0.00,,,0.00,meteohub,2013-10-23 11:12:00,
2013-10-23 07:17:00,58.8,58.3,29.68,West,270,4.0,5.0,98,0.00,,,0.00,meteohub,2013-10-23 11:17:00,
2013-10-23 07:22:00,58.8,58.3,29.68,West,270,3.0,5.0,98,0.00,,,0.00,meteohub,2013-10-23 11:22:00,
2013-10-23 07:27:00,59.0,58.5,29.68,WSW,248,4.0,5.0,98,0.00,,,0.00,meteohub,2013-10-23 11:27:00,
2013-10-23 07:32:00,59.0,58.5,29.68,WSW,248,0.0,5.0,98,0.00,,,0.00,meteohub,2013-10-23 11:32:00,
2013-10-23 07:37:00,59.0,58.5,29.68,NNW,338,0.0,5.0,98,0.00,,,0.00,meteohub,2013-10-23 11:37:00,
2013-10-23 07:42:00,59.0,58.5,29.71,SW,225,3.0,4.0,98,0.00,,,0.00,meteohub,2013-10-23 11:42:00,
2013-10-23 07:47:00,59.2,58.6,29.71,WSW,248,3.0,4.0,98,0.00,,,0.00,meteohub,2013-10-23 11:47:00,
2013-10-23 07:52:00,59.2,58.6,29.71,WSW,248,3.0,4.0,98,0.00,,,0.00,meteohub,2013-10-23 11:52:00,
2013-10-23 07:57:00,59.2,58.6,29.71,WSW,248,3.0,4.0,98,0.00,,,0.00,meteohub,2013-10-23 11:57:00,
2013-10-23 08:01:00,59.2,58.6,29.71,SW,225,0.0,5.0,98,0.00,,,0.00,meteohub,2013-10-23 12:01:00,
2013-10-23 08:06:00,59.2,58.6,29.71,WSW,248,0.0,5.0,98,0.00,,,0.00,meteohub,2013-10-23 12:06:00,
2013-10-23 08:12:00,59.2,58.6,29.71,NNW,338,0.0,5.0,98,0.00,,,0.00,meteohub,2013-10-23 12:12:00,
2013-10-23 08:17:00,59.4,58.8,29.71,West,270,3.0,5.0,98,0.00,,,0.00,meteohub,2013-10-23 12:17:00,
2013-10-23 08:22:00,59.4,58.8,29.71,West,270,3.0,4.0,98,0.00,,,0.00,meteohub,2013-10-23 12:22:00,
2013-10-23 08:27:00,59.4,58.8,29.71,WSW,248,0.0,4.0,98,0.00,,,0.00,meteohub,2013-10-23 12:27:00,
2013-10-23 08:32:00,59.4,58.8,29.71,NE,45,0.0,5.0,98,0.00,,,0.00,meteohub,2013-10-23 12:32:00,
2013-10-23 08:37:00,58.8,58.3,29.71,ENE,68,4.0,5.0,98,0.00,,,0.00,meteohub,2013-10-23 12:37:00,
2013-10-23 08:42:00,58.8,58.3,29.71,NNE,22,6.0,6.0,98,0.00,,,0.00,meteohub,2013-10-23 12:42:00,
2013-10-23 08:47:00,58.3,57.7,29.71,NNE,22,5.0,8.0,98,0.00,,,0.00,meteohub,2013-10-23 12:47:00,
2013-10-23 08:52:00,58.1,57.6,29.71,NW,315,3.0,8.0,98,0.00,,,0.00,meteohub,2013-10-23 12:52:00,
2013-10-23 08:57:00,57.4,56.8,29.71,NNW,338,2.0,8.0,98,0.00,,,0.00,meteohub,2013-10-23 12:57:00,
2013-10-23 09:02:00,57.0,56.5,29.71,NNW,338,5.0,8.0,98,0.00,,,0.00,meteohub,2013-10-23 13:02:00,
2013-10-23 09:07:00,56.7,56.1,29.71,SE,135,3.0,8.0,98,0.00,,,0.00,meteohub,2013-10-23 13:07:00,
2013-10-23 09:12:00,56.7,56.1,29.71,NNW,338,3.0,8.0,98,0.00,,,0.00,meteohub,2013-10-23 13:12:00,
2013-10-23 09:17:00,56.5,55.9,29.71,NE,45,3.0,8.0,98,0.00,,,0.00,meteohub,2013-10-23 13:17:00,
2013-10-23 09:22:00,56.5,55.9,29.71,East,90,3.0,8.0,98,0.00,,,0.00,meteohub,2013-10-23 13:22:00,
2013-10-23 09:27:00,56.7,56.1,29.71,NE,45,3.0,6.0,98,0.00,,,0.00,meteohub,2013-10-23 13:27:00,
2013-10-23 09:32:00,56.3,55.8,29.71,NE,45,0.0,6.0,98,0.00,,,0.00,meteohub,2013-10-23 13:32:00,
2013-10-23 09:37:00,56.3,55.8,29.71,ENE,68,3.0,6.0,98,0.00,,,0.00,meteohub,2013-10-23 13:37:00,
2013-10-23 09:42:00,56.3,55.8,29.74,ENE,68,4.0,6.0,98,0.00,,,0.00,meteohub,2013-10-23 13:42:00,
2013-10-23 09:47:00,55.9,55.4,29.74,NW,315,2.0,6.0,98,0.00,,,0.00,meteohub,2013-10-23 13:47:00,
2013-10-23 09:52:00,55.2,54.7,29.74,NNE,22,4.0,6.0,98,0.00,,,0.00,meteohub,2013-10-23 13:52:00,
2013-10-23 09:57:00,55.2,54.7,29.74,NNW,338,0.0,8.0,98,0.00,,,0.00,meteohub,2013-10-23 13:57:00,
2013-10-23 10:02:00,55.4,54.9,29.74,NW,315,0.0,8.0,98,0.00,,,0.00,meteohub,2013-10-23 14:02:00,
2013-10-23 10:07:00,55.2,54.7,29.74,NE,45,5.0,6.0,98,0.00,,,0.00,meteohub,2013-10-23 14:07:00,
2013-10-23 10:12:00,54.9,54.3,29.74,North,0,0.0,7.0,98,0.00,,,0.00,meteohub,2013-10-23 14:12:00,
2013-10-23 10:17:00,54.9,54.3,29.74,WSW,248,2.0,7.0,98,0.00,,,0.00,meteohub,2013-10-23 14:17:00,
2013-10-23 10:22:00,54.9,54.0,29.74,WSW,248,3.0,7.0,97,0.00,,,0.00,meteohub,2013-10-23 14:22:00,
2013-10-23 10:27:00,54.9,53.8,29.74,WSW,248,3.0,6.0,96,0.00,,,0.00,meteohub,2013-10-23 14:27:00,
2013-10-23 10:32:00,54.1,52.5,29.74,WSW,248,4.0,5.0,94,0.00,,,0.00,meteohub,2013-10-23 14:32:00,
2013-10-23 10:37:00,54.5,52.9,29.74,SW,225,0.0,6.0,94,0.00,,,0.00,meteohub,2013-10-23 14:37:00,
2013-10-23 10:42:00,54.5,52.5,29.74,SW,225,4.0,6.0,93,0.00,,,0.00,meteohub,2013-10-23 14:42:00,
2013-10-23 10:47:00,54.7,52.2,29.74,WNW,292,0.0,6.0,91,0.00,,,0.00,meteohub,2013-10-23 14:47:00,
2013-10-23 10:52:00,55.0,51.6,29.74,WNW,292,0.0,5.0,88,0.00,,,0.00,meteohub,2013-10-23 14:52:00,
2013-10-23 10:57:00,55.8,51.1,29.74,North,0,0.0,5.0,84,0.00,,,0.00,meteohub,2013-10-23 14:57:00,
2013-10-23 11:02:00,56.3,50.5,29.74,WSW,248,3.0,5.0,81,0.00,,,0.00,meteohub,2013-10-23 15:02:00,
2013-10-23 11:07:00,56.7,49.5,29.74,North,0,3.0,7.0,77,0.00,,,0.00,meteohub,2013-10-23 15:07:00,
2013-10-23 11:12:00,57.4,48.7,29.74,SSE,158,4.0,7.0,73,0.00,,,0.00,meteohub,2013-10-23 15:12:00,
2013-10-23 11:17:00,57.2,47.8,29.74,West,270,3.0,8.0,71,0.00,,,0.00,meteohub,2013-10-23 15:17:00,
2013-10-23 11:22:00,57.0,47.3,29.74,WSW,248,4.0,8.0,70,0.00,,,0.00,meteohub,2013-10-23 15:22:00,
2013-10-23 11:27:00,57.0,46.6,29.74,NE,45,3.0,8.0,68,0.00,,,0.00,meteohub,2013-10-23 15:27:00,
2013-10-23 11:32:00,57.4,45.7,29.74,NNW,338,4.0,8.0,65,0.00,,,0.00,meteohub,2013-10-23 15:32:00,
2013-10-23 11:37:00,57.6,44.6,29.74,NNE,22,4.0,8.0,62,0.00,,,0.00,meteohub,2013-10-23 15:37:00,
2013-10-23 11:42:00,57.9,44.6,29.74,NNE,22,5.0,8.0,61,0.00,,,0.00,meteohub,2013-10-23 15:42:00,
2013-10-23 11:47:00,58.5,44.2,29.74,South,180,2.0,8.0,59,0.00,,,0.00,meteohub,2013-10-23 15:47:00,
2013-10-23 11:52:00,58.6,43.0,29.74,NNE,22,4.0,8.0,56,0.00,,,0.00,meteohub,2013-10-23 15:52:00,
2013-10-23 11:57:00,58.8,42.3,29.71,ENE,68,4.0,5.0,54,0.00,,,0.00,meteohub,2013-10-23 15:57:00,
2013-10-23 12:02:00,59.5,43.3,29.71,WSW,248,4.0,7.0,55,0.00,,,0.00,meteohub,2013-10-23 16:02:00,
2013-10-23 12:07:00,59.9,42.8,29.71,North,0,3.0,7.0,53,0.00,,,0.00,meteohub,2013-10-23 16:07:00,
2013-10-23 12:12:00,60.3,41.5,29.74,SSW,202,3.0,7.0,50,0.00,,,0.00,meteohub,2013-10-23 16:12:00,
2013-10-23 12:17:00,60.3,40.5,29.74,ENE,68,4.0,8.0,48,0.00,,,0.00,meteohub,2013-10-23 16:17:00,
2013-10-23 12:22:00,60.1,40.3,29.74,ENE,68,3.0,8.0,48,0.00,,,0.00,meteohub,2013-10-23 16:22:00,
2013-10-23 12:27:00,60.6,40.3,29.74,SW,225,5.0,8.0,47,0.00,,,0.00,meteohub,2013-10-23 16:27:00,
2013-10-23 12:32:00,61.3,41.0,29.74,NE,45,5.0,9.0,47,0.00,,,0.00,meteohub,2013-10-23 16:32:00,
2013-10-23 12:37:00,61.2,40.3,29.74,WNW,292,2.0,9.0,46,0.00,,,0.00,meteohub,2013-10-23 16:37:00,
2013-10-23 12:42:00,61.7,40.6,29.71,NE,45,3.0,8.0,46,0.00,,,0.00,meteohub,2013-10-23 16:42:00,
2013-10-23 12:47:00,62.6,41.0,29.71,ENE,68,3.0,8.0,45,0.00,,,0.00,meteohub,2013-10-23 16:47:00,
2013-10-23 12:52:00,63.0,40.6,29.71,NNE,22,4.0,11.0,44,0.00,,,0.00,meteohub,2013-10-23 16:52:00,
2013-10-23 12:57:00,63.0,39.6,29.71,ENE,68,7.0,11.0,42,0.00,,,0.00,meteohub,2013-10-23 16:57:00,
2013-10-23 13:02:00,63.1,39.0,29.71,WSW,248,0.0,11.0,41,0.00,,,0.00,meteohub,2013-10-23 17:02:00,
2013-10-23 13:07:00,63.3,38.7,29.71,SW,225,0.0,7.0,40,0.00,,,0.00,meteohub,2013-10-23 17:07:00,
2013-10-23 13:12:00,63.9,39.0,29.71,NNW,338,3.0,7.0,40,0.00,,,0.00,meteohub,2013-10-23 17:12:00,
2013-10-23 13:17:00,63.7,38.3,29.71,SSE,158,6.0,6.0,39,0.00,,,0.00,meteohub,2013-10-23 17:17:00,
2013-10-23 13:22:00,63.9,37.8,29.71,WSW,248,5.0,8.0,38,0.00,,,0.00,meteohub,2013-10-23 17:22:00,
2013-10-23 13:27:00,63.9,39.0,29.71,ENE,68,3.0,8.0,40,0.00,,,0.00,meteohub,2013-10-23 17:27:00,
2013-10-23 13:32:00,64.4,36.1,29.71,West,270,2.0,8.0,35,0.00,,,0.00,meteohub,2013-10-23 17:32:00,
2013-10-23 13:37:00,63.5,35.4,29.71,NNW,338,4.0,8.0,35,0.00,,,0.00,meteohub,2013-10-23 17:37:00,
2013-10-23 13:42:00,63.9,36.3,29.71,WSW,248,0.0,8.0,36,0.00,,,0.00,meteohub,2013-10-23 17:42:00,
2013-10-23 13:47:00,64.8,36.5,29.71,SW,225,5.0,8.0,35,0.00,,,0.00,meteohub,2013-10-23 17:47:00,
2013-10-23 13:52:00,65.5,36.3,29.71,SW,225,4.0,10.0,34,0.00,,,0.00,meteohub,2013-10-23 17:52:00,
2013-10-23 13:57:00,67.1,37.8,29.71,SSW,202,4.0,10.0,34,0.00,,,0.00,meteohub,2013-10-23 17:57:00,
2013-10-23 14:02:00,66.4,36.3,29.71,North,0,4.0,10.0,33,0.00,,,0.00,meteohub,2013-10-23 18:02:00,
2013-10-23 14:07:00,64.8,35.8,29.71,SSW,202,0.0,8.0,34,0.00,,,0.00,meteohub,2013-10-23 18:07:00,
2013-10-23 14:12:00,64.4,35.4,29.71,SW,225,0.0,10.0,34,0.00,,,0.00,meteohub,2013-10-23 18:12:00,
2013-10-23 14:17:00,64.6,36.3,29.71,NW,315,0.0,10.0,35,0.00,,,0.00,meteohub,2013-10-23 18:17:00,
2013-10-23 14:22:00,66.4,36.3,29.71,SSW,202,3.0,10.0,33,0.00,,,0.00,meteohub,2013-10-23 18:22:00,
2013-10-23 14:27:00,67.3,37.2,29.68,WSW,248,3.0,6.0,33,0.00,,,0.00,meteohub,2013-10-23 18:27:00,
2013-10-23 14:32:00,68.2,37.2,29.68,WSW,248,4.0,8.0,32,0.00,,,0.00,meteohub,2013-10-23 18:32:00,
2013-10-23 14:37:00,67.8,36.1,29.68,North,0,3.0,8.0,31,0.00,,,0.00,meteohub,2013-10-23 18:37:00,
2013-10-23 14:42:00,66.7,36.0,29.68,WSW,248,4.0,8.0,32,0.00,,,0.00,meteohub,2013-10-23 18:42:00,
2013-10-23 14:47:00,65.5,34.9,29.68,SSE,158,2.0,8.0,32,0.00,,,0.00,meteohub,2013-10-23 18:47:00,
2013-10-23 14:52:00,64.6,34.9,29.68,SSE,158,3.0,8.0,33,0.00,,,0.00,meteohub,2013-10-23 18:52:00,
2013-10-23 14:57:00,64.0,35.1,29.71,WSW,248,0.0,8.0,34,0.00,,,0.00,meteohub,2013-10-23 18:57:00,
2013-10-23 15:02:00,64.2,36.0,29.71,NNE,22,4.0,8.0,35,0.00,,,0.00,meteohub,2013-10-23 19:02:00,
2013-10-23 15:07:00,63.3,35.2,29.71,ENE,68,4.0,8.0,35,0.00,,,0.00,meteohub,2013-10-23 19:07:00,
2013-10-23 15:13:00,62.8,35.4,29.71,SSW,202,0.0,8.0,36,0.00,,,0.00,meteohub,2013-10-23 19:13:00,
2013-10-23 15:18:00,62.6,35.2,29.71,WSW,248,4.0,8.0,36,0.00,,,0.00,meteohub,2013-10-23 19:18:00,
2013-10-23 15:23:00,64.2,36.0,29.71,WSW,248,4.0,8.0,35,0.00,,,0.00,meteohub,2013-10-23 19:23:00,
2013-10-23 15:28:00,65.8,36.0,29.71,WSW,248,8.0,8.0,33,0.00,,,0.00,meteohub,2013-10-23 19:28:00,
2013-10-23 15:33:00,66.7,33.4,29.71,WSW,248,5.0,8.0,29,0.00,,,0.00,meteohub,2013-10-23 19:33:00,
2013-10-23 15:38:00,66.9,31.8,29.71,WSW,248,3.0,10.0,27,0.00,,,0.00,meteohub,2013-10-23 19:38:00,
2013-10-23 15:43:00,67.1,30.0,29.71,WSW,248,9.0,10.0,25,0.00,,,0.00,meteohub,2013-10-23 19:43:00,
2013-10-23 15:48:00,66.7,29.8,29.71,NNW,338,8.0,10.0,25,0.00,,,0.00,meteohub,2013-10-23 19:48:00,
2013-10-23 15:53:00,66.7,28.8,29.71,WSW,248,5.0,17.0,24,0.00,,,0.00,meteohub,2013-10-23 19:53:00,
2013-10-23 15:58:00,66.7,28.8,29.71,WSW,248,7.0,17.0,24,0.00,,,0.00,meteohub,2013-10-23 19:58:00,
2013-10-23 16:03:00,66.9,28.9,29.71,NNW,338,6.0,17.0,24,0.00,,,0.00,meteohub,2013-10-23 20:03:00,
2013-10-23 16:08:00,67.3,29.3,29.71,SW,225,8.0,11.0,24,0.00,,,0.00,meteohub,2013-10-23 20:08:00,
2013-10-23 16:13:00,67.1,29.1,29.71,SW,225,6.0,11.0,24,0.00,,,0.00,meteohub,2013-10-23 20:13:00,
2013-10-23 16:18:00,67.1,29.1,29.71,WSW,248,7.0,11.0,24,0.00,,,0.00,meteohub,2013-10-23 20:18:00,
2013-10-23 16:23:00,67.5,29.5,29.71,SW,225,6.0,11.0,24,0.00,,,0.00,meteohub,2013-10-23 20:23:00,
2013-10-23 16:28:00,66.7,28.8,29.74,WSW,248,3.0,11.0,24,0.00,,,0.00,meteohub,2013-10-23 20:28:00,
2013-10-23 16:33:00,66.4,28.4,29.74,WSW,248,11.0,11.0,24,0.00,,,0.00,meteohub,2013-10-23 20:33:00,
2013-10-23 16:38:00,66.6,28.6,29.74,WSW,248,8.0,12.0,24,0.00,,,0.00,meteohub,2013-10-23 20:38:00,
2013-10-23 16:43:00,66.6,28.6,29.74,WSW,248,4.0,12.0,24,0.00,,,0.00,meteohub,2013-10-23 20:43:00,
2013-10-23 16:48:00,66.6,28.6,29.74,WNW,292,3.0,11.0,24,0.00,,,0.00,meteohub,2013-10-23 20:48:00,
2013-10-23 16:53:00,67.1,29.1,29.74,West,270,3.0,11.0,24,0.00,,,0.00,meteohub,2013-10-23 20:53:00,
2013-10-23 16:58:00,66.6,28.6,29.74,West,270,5.0,11.0,24,0.00,,,0.00,meteohub,2013-10-23 20:58:00,
2013-10-23 17:03:00,66.6,27.7,29.74,ESE,112,4.0,10.0,23,0.00,,,0.00,meteohub,2013-10-23 21:03:00,
2013-10-23 17:08:00,66.7,27.7,29.74,NNE,22,3.0,10.0,23,0.00,,,0.00,meteohub,2013-10-23 21:08:00,
2013-10-23 17:13:00,66.7,28.8,29.74,SW,225,6.0,8.0,24,0.00,,,0.00,meteohub,2013-10-23 21:13:00,
2013-10-23 17:18:00,65.8,28.0,29.74,WSW,248,6.0,8.0,24,0.00,,,0.00,meteohub,2013-10-23 21:18:00,
2013-10-23 17:23:00,65.5,27.7,29.74,SW,225,4.0,11.0,24,0.00,,,0.00,meteohub,2013-10-23 21:23:00,
2013-10-23 17:28:00,64.2,26.6,29.74,ENE,68,4.0,11.0,24,0.00,,,0.00,meteohub,2013-10-23 21:28:00,
2013-10-23 17:33:00,63.5,26.1,29.74,North,0,3.0,11.0,24,0.00,,,0.00,meteohub,2013-10-23 21:33:00,
2013-10-23 17:38:00,63.1,25.7,29.74,West,270,3.0,9.0,24,0.00,,,0.00,meteohub,2013-10-23 21:38:00,
2013-10-23 17:43:00,62.4,26.1,29.77,WSW,248,4.0,9.0,25,0.00,,,0.00,meteohub,2013-10-23 21:43:00,
2013-10-23 17:48:00,62.1,25.9,29.77,ESE,112,3.0,9.0,25,0.00,,,0.00,meteohub,2013-10-23 21:48:00,
2013-10-23 17:53:00,61.7,25.5,29.77,SSW,202,2.0,8.0,25,0.00,,,0.00,meteohub,2013-10-23 21:53:00,
2013-10-23 17:58:00,61.3,25.2,29.77,West,270,2.0,5.0,25,0.00,,,0.00,meteohub,2013-10-23 21:58:00,
2013-10-23 18:03:00,60.6,26.4,29.77,West,270,0.0,7.0,27,0.00,,,0.00,meteohub,2013-10-23 22:03:00,
2013-10-23 18:08:00,59.9,26.8,29.77,West,270,0.0,7.0,28,0.00,,,0.00,meteohub,2013-10-23 22:08:00,
2013-10-23 18:13:00,59.2,27.7,29.77,West,270,0.0,7.0,30,0.00,,,0.00,meteohub,2013-10-23 22:13:00,
2013-10-23 18:18:00,58.5,27.9,29.77,West,270,0.0,2.0,31,0.00,,,0.00,meteohub,2013-10-23 22:18:00,
2013-10-23 18:23:00,57.9,29.7,29.77,West,270,0.0,2.0,34,0.00,,,0.00,meteohub,2013-10-23 22:23:00,
2013-10-23 18:28:00,57.4,29.3,29.80,West,270,0.0,3.0,34,0.00,,,0.00,meteohub,2013-10-23 22:28:00,
2013-10-23 18:33:00,57.0,29.7,29.80,West,270,0.0,3.0,35,0.00,,,0.00,meteohub,2013-10-23 22:33:00,
2013-10-23 18:38:00,56.7,29.3,29.80,SE,135,2.0,4.0,35,0.00,,,0.00,meteohub,2013-10-23 22:38:00,
2013-10-23 18:43:00,56.7,29.3,29.80,West,270,2.0,4.0,35,0.00,,,0.00,meteohub,2013-10-23 22:43:00,
2013-10-23 18:48:00,56.5,28.4,29.80,West,270,0.0,4.0,34,0.00,,,0.00,meteohub,2013-10-23 22:48:00,
2013-10-23 18:53:00,56.1,28.8,29.80,West,270,0.0,4.0,35,0.00,,,0.00,meteohub,2013-10-23 22:53:00,
2013-10-23 18:58:00,56.1,28.0,29.83,NW,315,3.0,4.0,34,0.00,,,0.00,meteohub,2013-10-23 22:58:00,
2013-10-23 19:03:00,56.5,27.0,29.83,NW,315,0.0,4.0,32,0.00,,,0.00,meteohub,2013-10-23 23:03:00,
2013-10-23 19:08:00,56.7,27.1,29.83,North,0,8.0,8.0,32,0.00,,,0.00,meteohub,2013-10-23 23:08:00,
2013-10-23 19:13:00,57.0,25.0,29.83,SSW,202,5.0,8.0,29,0.00,,,0.00,meteohub,2013-10-23 23:13:00,
2013-10-23 19:18:00,57.2,24.4,29.83,WNW,292,10.0,10.0,28,0.00,,,0.00,meteohub,2013-10-23 23:18:00,
2013-10-23 19:23:00,57.4,24.6,29.83,WSW,248,5.0,8.0,28,0.00,,,0.00,meteohub,2013-10-23 23:23:00,
2013-10-23 19:28:00,57.2,24.4,29.86,North,0,3.0,10.0,28,0.00,,,0.00,meteohub,2013-10-23 23:28:00,
2013-10-23 19:33:00,56.8,24.1,29.86,WSW,248,4.0,10.0,28,0.00,,,0.00,meteohub,2013-10-23 23:33:00,
2013-10-23 19:38:00,56.8,24.1,29.86,SSE,158,2.0,6.0,28,0.00,,,0.00,meteohub,2013-10-23 23:38:00,
2013-10-23 19:43:00,56.7,23.0,29.86,NE,45,0.0,6.0,27,0.00,,,0.00,meteohub,2013-10-23 23:43:00,
2013-10-23 19:48:00,56.5,22.8,29.86,NNW,338,5.0,6.0,27,0.00,,,0.00,meteohub,2013-10-23 23:48:00,
2013-10-23 19:53:00,56.1,23.4,29.86,SSW,202,4.0,6.0,28,0.00,,,0.00,meteohub,2013-10-23 23:53:00,
2013-10-23 19:58:00,55.9,23.4,29.86,SW,225,0.0,10.0,28,0.00,,,0.00,meteohub,2013-10-23 23:58:00,
2013-10-23 20:03:00,55.6,23.0,29.86,NNW,338,9.0,10.0,28,0.00,,,0.00,meteohub,2013-10-24 00:03:00,
2013-10-23 20:08:00,55.2,22.6,29.86,SSE,158,0.0,10.0,28,0.00,,,0.00,meteohub,2013-10-24 00:08:00,
2013-10-23 20:14:00,55.0,22.5,29.89,WSW,248,3.0,9.0,28,0.00,,,0.00,meteohub,2013-10-24 00:14:00,
2013-10-23 20:19:00,54.7,23.0,29.89,West,270,2.0,9.0,29,0.00,,,0.00,meteohub,2013-10-24 00:19:00,
2013-10-23 20:24:00,54.5,22.8,29.89,SSE,158,3.0,6.0,29,0.00,,,0.00,meteohub,2013-10-24 00:24:00,
2013-10-23 20:29:00,54.1,22.6,29.89,WSW,248,4.0,9.0,29,0.00,,,0.00,meteohub,2013-10-24 00:29:00,
2013-10-23 20:34:00,54.0,22.5,29.89,SSW,202,3.0,9.0,29,0.00,,,0.00,meteohub,2013-10-24 00:34:00,
2013-10-23 20:39:00,53.8,23.0,29.89,West,270,3.0,9.0,30,0.00,,,0.00,meteohub,2013-10-24 00:39:00,
2013-10-23 20:44:00,53.6,22.8,29.89,SW,225,0.0,9.0,30,0.00,,,0.00,meteohub,2013-10-24 00:44:00,
2013-10-23 20:49:00,53.2,23.4,29.89,NNE,22,3.0,7.0,31,0.00,,,0.00,meteohub,2013-10-24 00:49:00,
2013-10-23 20:54:00,53.1,23.2,29.89,SW,225,3.0,7.0,31,0.00,,,0.00,meteohub,2013-10-24 00:54:00,
2013-10-23 20:59:00,52.5,23.5,29.92,SW,225,3.0,7.0,32,0.00,,,0.00,meteohub,2013-10-24 00:59:00,
2013-10-23 21:04:00,52.3,24.1,29.92,WSW,248,3.0,7.0,33,0.00,,,0.00,meteohub,2013-10-24 01:04:00,
2013-10-23 21:09:00,52.0,23.7,29.92,NE,45,0.0,5.0,33,0.00,,,0.00,meteohub,2013-10-24 01:09:00,
2013-10-23 21:14:00,51.4,25.3,29.92,West,270,0.0,5.0,36,0.00,,,0.00,meteohub,2013-10-24 01:14:00,
2013-10-23 21:19:00,50.9,24.8,29.92,ESE,112,3.0,4.0,36,0.00,,,0.00,meteohub,2013-10-24 01:19:00,
2013-10-23 21:24:00,50.5,25.2,29.92,ENE,68,6.0,6.0,37,0.00,,,0.00,meteohub,2013-10-24 01:24:00,
2013-10-23 21:29:00,50.7,25.3,29.92,ENE,68,4.0,4.0,37,0.00,,,0.00,meteohub,2013-10-24 01:29:00,
2013-10-23 21:34:00,50.9,24.8,29.92,SSW,202,3.0,8.0,36,0.00,,,0.00,meteohub,2013-10-24 01:34:00,
2013-10-23 21:39:00,50.7,25.3,29.92,ENE,68,3.0,8.0,37,0.00,,,0.00,meteohub,2013-10-24 01:39:00,
2013-10-23 21:44:00,50.9,24.8,29.95,WSW,248,3.0,8.0,36,0.00,,,0.00,meteohub,2013-10-24 01:44:00,
2013-10-23 21:49:00,50.7,24.8,29.95,West,270,0.0,6.0,36,0.00,,,0.00,meteohub,2013-10-24 01:49:00,
2013-10-23 21:54:00,50.5,24.6,29.95,West,270,3.0,6.0,36,0.00,,,0.00,meteohub,2013-10-24 01:54:00,
2013-10-23 21:59:00,50.2,25.0,29.95,WNW,292,5.0,6.0,37,0.00,,,0.00,meteohub,2013-10-24 01:59:00,
2013-10-23 22:04:00,50.0,24.8,29.95,SSE,158,0.0,6.0,37,0.00,,,0.00,meteohub,2013-10-24 02:04:00,
2013-10-23 22:09:00,49.8,25.2,29.95,WSW,248,3.0,6.0,38,0.00,,,0.00,meteohub,2013-10-24 02:09:00,
2013-10-23 22:14:00,49.5,25.0,29.95,NNE,22,3.0,6.0,38,0.00,,,0.00,meteohub,2013-10-24 02:14:00,
2013-10-23 22:19:00,49.3,25.3,29.95,WSW,248,7.0,7.0,39,0.00,,,0.00,meteohub,2013-10-24 02:19:00,
2013-10-23 22:24:00,49.1,25.2,29.95,NW,315,0.0,6.0,39,0.00,,,0.00,meteohub,2013-10-24 02:24:00,
2013-10-23 22:29:00,48.7,24.8,29.98,SSW,202,5.0,7.0,39,0.00,,,0.00,meteohub,2013-10-24 02:29:00,
2013-10-23 22:34:00,48.7,24.8,29.98,NNW,338,3.0,7.0,39,0.00,,,0.00,meteohub,2013-10-24 02:34:00,
2013-10-23 22:39:00,48.4,25.2,29.98,SSE,158,3.0,5.0,40,0.00,,,0.00,meteohub,2013-10-24 02:39:00,
2013-10-23 22:44:00,48.2,25.0,29.98,South,180,0.0,6.0,40,0.00,,,0.00,meteohub,2013-10-24 02:44:00,
2013-10-23 22:49:00,48.4,25.2,29.98,WNW,292,0.0,6.0,40,0.00,,,0.00,meteohub,2013-10-24 02:49:00,
2013-10-23 22:54:00,47.8,25.3,29.98,NE,45,2.0,6.0,41,0.00,,,0.00,meteohub,2013-10-24 02:54:00,
2013-10-23 22:59:00,47.7,25.7,29.98,NNW,338,0.0,6.0,42,0.00,,,0.00,meteohub,2013-10-24 02:59:00,
2013-10-23 23:04:00,47.5,25.5,29.98,NNW,338,0.0,6.0,42,0.00,,,0.00,meteohub,2013-10-24 03:04:00,
2013-10-23 23:09:00,46.9,26.2,29.98,SW,225,4.0,4.0,44,0.00,,,0.00,meteohub,2013-10-24 03:09:00,
2013-10-23 23:14:00,46.9,26.2,29.98,SW,225,0.0,3.0,44,0.00,,,0.00,meteohub,2013-10-24 03:14:00,
2013-10-23 23:19:00,46.6,26.4,29.98,WNW,292,0.0,4.0,45,0.00,,,0.00,meteohub,2013-10-24 03:19:00,
2013-10-23 23:24:00,46.4,26.2,29.98,WNW,292,0.0,4.0,45,0.00,,,0.00,meteohub,2013-10-24 03:24:00,
2013-10-23 23:29:00,46.4,26.2,29.98,SSW,202,0.0,4.0,45,0.00,,,0.00,meteohub,2013-10-24 03:29:00,
2013-10-23 23:34:00,46.0,27.0,29.98,SW,225,0.0,4.0,47,0.00,,,0.00,meteohub,2013-10-24 03:34:00,
2013-10-23 23:39:00,45.9,26.8,29.98,NNW,338,0.0,3.0,47,0.00,,,0.00,meteohub,2013-10-24 03:39:00,
2013-10-23 23:44:00,45.5,27.0,29.98,NNW,338,0.0,3.0,48,0.00,,,0.00,meteohub,2013-10-24 03:44:00,
2013-10-23 23:49:00,45.1,26.6,29.98,NNW,338,0.0,3.0,48,0.00,,,0.00,meteohub,2013-10-24 03:49:00,
2013-10-23 23:55:00,45.0,27.0,29.98,East,90,4.0,4.0,49,0.00,,,0.00,meteohub,2013-10-24 03:55:00,